createdAt,value
2018-11-07T00:00:45.466Z,8.50
2018-11-07T00:01:49.142Z,8.50
2018-11-07T00:02:52.871Z,8.40
2018-11-07T00:03:56.567Z,8.50
2018-11-07T00:05:00.161Z,8.40
2018-11-07T00:06:03.853Z,8.40
2018-11-07T00:07:07.733Z,8.40
2018-11-07T00:08:11.481Z,8.50
2018-11-07T00:09:14.894Z,8.50
2018-11-07T00:10:18.413Z,8.50
2018-11-07T00:11:21.982Z,8.60
2018-11-07T00:12:25.492Z,8.50
2018-11-07T00:13:29.078Z,8.50
2018-11-07T00:14:32.648Z,8.50
2018-11-07T00:15:36.223Z,8.50
2018-11-07T00:16:39.809Z,8.50
2018-11-07T00:17:43.545Z,8.50
2018-11-07T00:18:47.097Z,8.50
2018-11-07T00:19:50.749Z,8.40
2018-11-07T00:20:54.294Z,8.40
2018-11-07T00:21:57.916Z,8.40
2018-11-07T00:23:01.454Z,8.30
2018-11-07T00:24:05.054Z,8.30
2018-11-07T00:25:09.951Z,8.30
2018-11-07T00:26:13.592Z,8.30
2018-11-07T00:27:17.125Z,8.30
2018-11-07T00:28:20.670Z,8.30
2018-11-07T00:29:24.234Z,8.40
2018-11-07T00:30:27.787Z,8.30
2018-11-07T00:31:31.309Z,8.30
2018-11-07T00:32:34.871Z,8.30
2018-11-07T00:33:38.809Z,8.30
2018-11-07T00:34:42.347Z,8.30
2018-11-07T00:35:45.885Z,8.20
2018-11-07T00:36:49.485Z,8.20
2018-11-07T00:37:53.014Z,8.20
2018-11-07T00:38:56.672Z,8.20
2018-11-07T00:40:00.263Z,8.20
2018-11-07T00:41:03.793Z,8.20
2018-11-07T00:42:07.364Z,8.20
2018-11-07T00:43:11.076Z,8.10
2018-11-07T00:44:14.678Z,8.10
2018-11-07T00:45:18.216Z,8.10
2018-11-07T00:46:21.934Z,8.10
2018-11-07T00:47:25.628Z,8.10
2018-11-07T00:48:29.266Z,8.10
2018-11-07T00:49:32.943Z,8.10
2018-11-07T00:50:36.512Z,8.00
2018-11-07T00:51:40.130Z,8.00
2018-11-07T00:52:44.090Z,8.00
2018-11-07T00:53:47.661Z,8.00
2018-11-07T00:54:51.366Z,8.00
2018-11-07T00:55:54.922Z,8.00
2018-11-07T00:56:58.555Z,8.00
2018-11-07T00:58:02.319Z,8.00
2018-11-07T00:59:05.822Z,8.00
2018-11-07T01:00:12.484Z,8.00
2018-11-07T01:01:16.035Z,8.00
2018-11-07T01:02:19.636Z,8.00
2018-11-07T01:03:23.174Z,8.00
2018-11-07T01:04:26.866Z,8.00
2018-11-07T01:05:30.592Z,8.00
2018-11-07T01:06:34.573Z,8.00
2018-11-07T01:07:38.143Z,8.00
2018-11-07T01:08:41.738Z,8.00
2018-11-07T01:09:45.359Z,8.00
2018-11-07T01:10:49.006Z,8.00
2018-11-07T01:11:52.573Z,8.00
2018-11-07T01:12:56.074Z,8.10
2018-11-07T01:13:59.681Z,8.10
2018-11-07T01:15:03.597Z,8.20
2018-11-07T01:16:07.203Z,8.20
2018-11-07T01:17:11.119Z,8.20
2018-11-07T01:18:14.673Z,8.20
2018-11-07T01:19:18.237Z,8.20
2018-11-07T01:20:21.800Z,8.20
2018-11-07T01:21:25.337Z,8.30
2018-11-07T01:22:29.438Z,8.30
2018-11-07T01:23:33.024Z,8.30
2018-11-07T01:24:36.579Z,8.30
2018-11-07T01:25:40.332Z,8.30
2018-11-07T01:26:43.894Z,8.40
2018-11-07T01:27:47.491Z,8.40
2018-11-07T01:28:51.059Z,8.40
2018-11-07T01:29:54.576Z,8.40
2018-11-07T01:30:58.185Z,8.40
2018-11-07T01:32:01.754Z,8.50
2018-11-07T01:33:05.675Z,8.50
2018-11-07T01:34:09.146Z,8.50
2018-11-07T01:35:12.799Z,8.60
2018-11-07T01:36:16.541Z,8.60
2018-11-07T01:37:20.112Z,8.60
2018-11-07T01:38:23.776Z,8.70
2018-11-07T01:39:27.297Z,8.70
2018-11-07T01:40:30.871Z,8.70
2018-11-07T01:41:34.398Z,8.70
2018-11-07T01:42:37.931Z,8.80
2018-11-07T01:43:41.495Z,8.80
2018-11-07T01:44:44.966Z,8.80
2018-11-07T01:45:48.529Z,8.80
2018-11-07T01:46:52.018Z,8.90
2018-11-07T01:47:55.542Z,8.80
2018-11-07T01:48:59.281Z,8.90
2018-11-07T01:50:02.908Z,8.90
2018-11-07T01:51:06.972Z,8.90
2018-11-07T01:52:10.526Z,8.90
2018-11-07T01:53:14.058Z,8.90
2018-11-07T01:54:17.581Z,8.90
2018-11-07T01:55:21.122Z,8.80
2018-11-07T01:56:24.648Z,8.80
2018-11-07T01:57:28.263Z,8.80
2018-11-07T01:58:31.841Z,8.70
2018-11-07T01:59:35.466Z,8.70
2018-11-07T02:00:38.993Z,8.60
2018-11-07T02:01:42.526Z,8.60
2018-11-07T02:04:02.863Z,8.50
2018-11-07T02:05:07.059Z,8.50
2018-11-07T02:06:10.686Z,8.50
2018-11-07T02:07:14.178Z,8.50
2018-11-07T02:08:20.445Z,8.50
2018-11-07T02:09:23.960Z,8.50
2018-11-07T02:10:27.621Z,8.40
2018-11-07T02:11:31.698Z,8.50
2018-11-07T02:12:35.174Z,8.40
2018-11-07T02:13:40.242Z,8.40
2018-11-07T02:14:43.738Z,8.40
2018-11-07T02:15:47.201Z,8.40
2018-11-07T02:16:50.812Z,8.40
2018-11-07T02:17:54.354Z,8.40
2018-11-07T02:18:58.024Z,8.30
2018-11-07T02:20:02.196Z,8.30
2018-11-07T02:21:05.676Z,8.30
2018-11-07T02:22:09.176Z,8.30
2018-11-07T02:23:12.867Z,8.30
2018-11-07T02:24:16.362Z,8.30
2018-11-07T02:25:19.831Z,8.30
2018-11-07T02:26:23.341Z,8.30
2018-11-07T02:27:27.374Z,8.30
2018-11-07T02:28:30.953Z,8.20
2018-11-07T02:29:34.433Z,8.20
2018-11-07T02:30:37.928Z,8.20
2018-11-07T02:31:42.764Z,8.20
2018-11-07T02:32:46.221Z,8.20
2018-11-07T02:33:49.740Z,8.10
2018-11-07T02:34:53.177Z,8.10
2018-11-07T02:35:56.671Z,8.00
2018-11-07T02:37:00.516Z,8.00
2018-11-07T02:38:04.174Z,7.90
2018-11-07T02:39:10.402Z,7.90
2018-11-07T02:40:13.902Z,8.00
2018-11-07T02:41:17.816Z,8.00
2018-11-07T02:42:21.254Z,8.00
2018-11-07T02:43:24.738Z,7.90
2018-11-07T02:44:28.787Z,8.00
2018-11-07T02:45:32.251Z,7.90
2018-11-07T02:46:35.895Z,7.90
2018-11-07T02:47:39.792Z,8.00
2018-11-07T02:48:43.333Z,7.90
2018-11-07T02:49:46.871Z,7.90
2018-11-07T02:50:50.843Z,7.90
2018-11-07T02:51:54.326Z,7.90
2018-11-07T02:52:57.779Z,7.90
2018-11-07T02:54:02.028Z,7.90
2018-11-07T02:55:05.593Z,7.90
2018-11-07T02:56:09.070Z,7.80
2018-11-07T02:57:12.588Z,7.80
2018-11-07T02:58:16.829Z,7.80
2018-11-07T02:59:20.425Z,7.80
2018-11-07T03:00:23.906Z,7.90
2018-11-07T03:01:28.509Z,7.90
2018-11-07T03:02:31.988Z,8.00
2018-11-07T03:03:35.420Z,8.00
2018-11-07T03:04:38.967Z,8.00
2018-11-07T03:05:42.433Z,8.00
2018-11-07T03:06:45.886Z,8.00
2018-11-07T03:07:49.857Z,8.00
2018-11-07T03:08:53.440Z,8.00
2018-11-07T03:09:56.937Z,8.00
2018-11-07T03:11:01.665Z,8.00
2018-11-07T03:12:05.736Z,8.00
2018-11-07T03:13:09.191Z,8.00
2018-11-07T03:14:12.691Z,8.00
2018-11-07T03:15:16.180Z,8.00
2018-11-07T03:16:19.682Z,7.90
2018-11-07T03:17:23.125Z,7.90
2018-11-07T03:18:26.587Z,7.90
2018-11-07T03:19:30.262Z,7.90
2018-11-07T03:20:33.950Z,7.90
2018-11-07T03:21:37.429Z,7.90
2018-11-07T03:22:41.345Z,7.90
2018-11-07T03:23:44.897Z,7.80
2018-11-07T03:24:48.355Z,7.80
2018-11-07T03:25:51.978Z,7.70
2018-11-07T03:26:55.540Z,7.70
2018-11-07T03:27:59.019Z,7.70
2018-11-07T03:29:03.037Z,7.70
2018-11-07T03:30:07.472Z,7.60
2018-11-07T03:31:11.673Z,7.60
2018-11-07T03:32:15.177Z,7.60
2018-11-07T03:33:18.691Z,7.60
2018-11-07T03:34:22.203Z,7.60
2018-11-07T03:35:26.708Z,7.60
2018-11-07T03:36:30.142Z,7.50
2018-11-07T03:37:33.653Z,7.50
2018-11-07T03:38:37.106Z,7.50
2018-11-07T03:39:40.677Z,7.50
2018-11-07T03:40:44.114Z,7.50
2018-11-07T03:41:47.806Z,7.40
2018-11-07T03:42:51.296Z,7.40
2018-11-07T03:43:55.603Z,7.40
2018-11-07T03:44:59.052Z,7.40
2018-11-07T03:46:02.610Z,7.40
2018-11-07T03:47:06.176Z,7.30
2018-11-07T03:48:10.117Z,7.40
2018-11-07T03:49:13.609Z,7.30
2018-11-07T03:50:17.077Z,7.30
2018-11-07T03:51:20.627Z,7.30
2018-11-07T03:52:24.117Z,7.20
2018-11-07T03:53:27.892Z,7.30
2018-11-07T03:54:31.559Z,7.30
2018-11-07T03:55:35.211Z,7.30
2018-11-07T03:56:38.815Z,7.20
2018-11-07T03:57:42.358Z,7.20
2018-11-07T03:58:45.800Z,7.20
2018-11-07T03:59:49.406Z,7.40
2018-11-07T04:00:52.886Z,7.40
2018-11-07T04:01:56.601Z,7.40
2018-11-07T04:03:00.098Z,7.40
2018-11-07T04:04:03.632Z,7.40
2018-11-07T04:05:08.673Z,7.40
2018-11-07T04:06:12.914Z,7.40
2018-11-07T04:07:16.372Z,7.30
2018-11-07T04:08:19.815Z,7.30
2018-11-07T04:09:23.276Z,7.40
2018-11-07T04:10:26.916Z,7.40
2018-11-07T04:11:30.641Z,7.40
2018-11-07T04:12:34.085Z,7.40
2018-11-07T04:13:37.587Z,7.40
2018-11-07T04:14:41.140Z,7.40
2018-11-07T04:15:44.699Z,7.30
2018-11-07T04:16:48.207Z,7.40
2018-11-07T04:17:51.698Z,7.40
2018-11-07T04:18:55.317Z,7.40
2018-11-07T04:19:58.869Z,7.40
2018-11-07T04:21:02.433Z,7.50
2018-11-07T04:22:06.683Z,7.50
2018-11-07T04:23:10.145Z,7.50
2018-11-07T04:24:13.658Z,7.50
2018-11-07T04:25:17.106Z,7.50
2018-11-07T04:26:20.574Z,7.50
2018-11-07T04:27:24.023Z,7.50
2018-11-07T04:28:27.538Z,7.50
2018-11-07T04:29:32.042Z,7.50
2018-11-07T04:30:35.525Z,7.60
2018-11-07T04:31:39.192Z,7.60
2018-11-07T04:32:43.137Z,7.60
2018-11-07T04:33:47.293Z,7.60
2018-11-07T04:34:50.788Z,7.70
2018-11-07T04:35:54.698Z,7.70
2018-11-07T04:36:58.808Z,7.80
2018-11-07T04:38:02.321Z,7.80
2018-11-07T04:39:09.049Z,7.80
2018-11-07T04:40:13.454Z,7.90
2018-11-07T04:41:16.900Z,7.90
2018-11-07T04:42:20.649Z,8.00
2018-11-07T04:43:24.125Z,8.00
2018-11-07T04:44:27.632Z,8.00
2018-11-07T04:45:31.095Z,8.10
2018-11-07T04:46:34.531Z,8.10
2018-11-07T04:47:37.971Z,8.20
2018-11-07T04:48:41.689Z,8.20
2018-11-07T04:49:45.230Z,8.30
2018-11-07T04:50:48.677Z,8.30
2018-11-07T04:51:52.127Z,8.40
2018-11-07T04:52:55.586Z,8.40
2018-11-07T04:53:59.162Z,8.50
2018-11-07T04:55:02.684Z,8.50
2018-11-07T04:56:07.447Z,8.50
2018-11-07T04:57:11.085Z,8.50
2018-11-07T04:58:14.592Z,8.50
2018-11-07T04:59:19.172Z,8.50
2018-11-07T05:00:22.866Z,8.50
2018-11-07T05:01:26.277Z,8.60
2018-11-07T05:02:29.739Z,8.60
2018-11-07T05:03:33.360Z,8.60
2018-11-07T05:04:37.211Z,8.70
2018-11-07T05:05:41.345Z,8.70
2018-11-07T05:06:44.802Z,8.80
2018-11-07T05:07:48.320Z,8.80
2018-11-07T05:08:51.703Z,8.80
2018-11-07T05:09:55.355Z,8.70
2018-11-07T05:10:58.804Z,8.70
2018-11-07T05:12:02.318Z,8.80
2018-11-07T05:13:05.817Z,8.80
2018-11-07T05:14:09.337Z,8.70
2018-11-07T05:15:12.841Z,8.70
2018-11-07T05:16:16.510Z,8.70
2018-11-07T05:17:19.993Z,8.70
2018-11-07T05:18:23.567Z,8.60
2018-11-07T05:19:27.031Z,8.60
2018-11-07T05:20:30.531Z,8.50
2018-11-07T05:21:34.039Z,8.50
2018-11-07T05:22:37.588Z,8.50
2018-11-07T05:23:41.040Z,8.50
2018-11-07T05:24:44.488Z,8.40
2018-11-07T05:25:48.749Z,8.40
2018-11-07T05:26:52.347Z,8.40
2018-11-07T05:27:56.397Z,8.30
2018-11-07T05:28:59.848Z,8.30
2018-11-07T05:30:03.564Z,8.30
2018-11-07T05:31:07.196Z,8.20
2018-11-07T05:32:11.217Z,8.20
2018-11-07T05:33:14.799Z,8.20
2018-11-07T05:34:19.307Z,8.10
2018-11-07T05:35:22.870Z,8.00
2018-11-07T05:36:27.050Z,8.00
2018-11-07T05:37:30.558Z,8.00
2018-11-07T05:38:34.758Z,7.90
2018-11-07T05:39:38.954Z,7.90
2018-11-07T05:40:42.397Z,7.90
2018-11-07T05:41:46.942Z,7.90
2018-11-07T05:42:50.911Z,7.90
2018-11-07T05:43:55.302Z,7.90
2018-11-07T05:44:58.815Z,7.90
2018-11-07T05:46:02.442Z,7.90
2018-11-07T05:47:06.834Z,8.00
2018-11-07T05:48:10.346Z,8.00
2018-11-07T05:49:14.028Z,8.10
2018-11-07T05:50:17.438Z,8.20
2018-11-07T05:51:20.902Z,8.20
2018-11-07T05:52:24.374Z,8.20
2018-11-07T05:53:27.852Z,8.30
2018-11-07T05:54:31.414Z,8.30
2018-11-07T05:55:34.910Z,8.30
2018-11-07T05:56:38.426Z,8.30
2018-11-07T05:57:42.658Z,8.30
2018-11-07T05:58:46.704Z,8.30
2018-11-07T05:59:54.195Z,8.40
2018-11-07T06:00:58.051Z,8.30
2018-11-07T06:02:02.776Z,8.30
2018-11-07T06:03:07.596Z,8.20
2018-11-07T06:04:12.143Z,8.20
2018-11-07T06:05:16.255Z,8.20
2018-11-07T06:06:20.202Z,8.10
2018-11-07T06:07:24.908Z,8.10
2018-11-07T06:08:29.046Z,8.10
2018-11-07T06:09:33.134Z,8.00
2018-11-07T06:10:37.441Z,8.00
2018-11-07T06:11:41.409Z,8.00
2018-11-07T06:12:45.729Z,8.00
2018-11-07T06:13:50.397Z,8.10
2018-11-07T06:14:54.599Z,8.00
2018-11-07T06:15:59.690Z,8.00
2018-11-07T06:17:04.515Z,8.00
2018-11-07T06:18:08.738Z,8.00
2018-11-07T06:19:12.879Z,8.00
2018-11-07T06:20:17.848Z,8.00
2018-11-07T06:21:21.863Z,8.10
2018-11-07T06:22:25.927Z,8.10
2018-11-07T06:23:30.084Z,8.10
2018-11-07T06:24:34.145Z,8.10
2018-11-07T06:25:38.412Z,8.20
2018-11-07T06:26:42.595Z,8.20
2018-11-07T06:27:46.633Z,8.30
2018-11-07T06:28:50.707Z,8.40
2018-11-07T06:29:54.702Z,8.50
2018-11-07T06:30:59.176Z,8.60
2018-11-07T06:32:03.572Z,8.60
2018-11-07T06:33:07.963Z,8.70
2018-11-07T06:34:12.320Z,8.70
2018-11-07T06:35:16.505Z,8.80
2018-11-07T06:36:20.760Z,8.70
2018-11-07T06:37:24.763Z,8.80
2018-11-07T06:38:28.868Z,8.70
2018-11-07T06:39:33.751Z,8.70
2018-11-07T06:40:37.819Z,8.60
2018-11-07T06:41:41.993Z,8.60
2018-11-07T06:42:46.672Z,8.50
2018-11-07T06:43:51.645Z,8.50
2018-11-07T06:44:55.914Z,8.40
2018-11-07T06:46:00.606Z,8.30
2018-11-07T06:47:05.759Z,8.30
2018-11-07T06:48:09.878Z,8.30
2018-11-07T06:49:15.276Z,8.30
2018-11-07T06:50:19.053Z,8.30
2018-11-07T06:51:22.692Z,8.30
2018-11-07T06:52:26.381Z,8.30
2018-11-07T06:53:30.038Z,8.30
2018-11-07T06:54:33.667Z,8.30
2018-11-07T06:55:37.598Z,8.20
2018-11-07T06:56:41.480Z,8.30
2018-11-07T06:57:45.292Z,8.20
2018-11-07T06:58:49.193Z,8.20
2018-11-07T06:59:52.930Z,8.20
2018-11-07T07:00:56.681Z,8.20
2018-11-07T07:02:00.544Z,8.20
2018-11-07T07:03:05.354Z,8.10
2018-11-07T07:04:09.061Z,8.10
2018-11-07T07:05:13.445Z,8.10
2018-11-07T07:06:17.160Z,8.10
2018-11-07T07:07:20.902Z,8.10
2018-11-07T07:08:24.650Z,8.10
2018-11-07T07:09:28.365Z,8.10
2018-11-07T07:10:32.053Z,8.10
2018-11-07T07:11:35.728Z,8.10
2018-11-07T07:12:39.490Z,8.00
2018-11-07T07:13:43.768Z,8.00
2018-11-07T07:14:47.478Z,8.10
2018-11-07T07:15:51.171Z,8.10
2018-11-07T07:16:54.873Z,8.10
2018-11-07T07:17:58.611Z,8.10
2018-11-07T07:19:02.329Z,8.10
2018-11-07T07:20:12.980Z,8.20
2018-11-07T07:21:16.639Z,8.20
2018-11-07T07:22:20.314Z,8.30
2018-11-07T07:23:24.045Z,8.30
2018-11-07T07:24:27.744Z,8.30
2018-11-07T07:25:31.576Z,8.40
2018-11-07T07:26:35.283Z,8.50
2018-11-07T07:27:39.119Z,8.50
2018-11-07T07:28:42.901Z,8.50
2018-11-07T07:29:47.182Z,8.60
2018-11-07T07:30:50.874Z,8.60
2018-11-07T07:31:54.521Z,8.70
2018-11-07T07:32:58.264Z,8.70
2018-11-07T07:34:02.650Z,8.80
2018-11-07T07:35:06.656Z,8.80
2018-11-07T07:36:10.576Z,8.90
2018-11-07T07:37:14.395Z,9.00
2018-11-07T07:38:18.164Z,9.00
2018-11-07T07:39:21.867Z,9.10
2018-11-07T07:40:25.520Z,9.20
2018-11-07T07:41:29.229Z,9.30
2018-11-07T07:42:32.878Z,9.30
2018-11-07T07:43:36.544Z,9.40
2018-11-07T07:44:40.132Z,9.50
2018-11-07T07:45:43.950Z,9.50
2018-11-07T07:46:47.507Z,9.50
2018-11-07T07:47:51.241Z,9.60
2018-11-07T07:48:54.900Z,9.50
2018-11-07T07:49:58.509Z,9.60
2018-11-07T07:51:02.214Z,9.60
2018-11-07T07:52:05.985Z,9.60
2018-11-07T07:53:10.037Z,9.70
2018-11-07T07:54:13.793Z,9.70
2018-11-07T07:55:17.467Z,9.70
2018-11-07T07:56:21.083Z,9.70
2018-11-07T07:57:24.772Z,9.80
2018-11-07T07:58:28.560Z,9.80
2018-11-07T07:59:32.210Z,9.80
2018-11-07T08:00:35.898Z,9.90
2018-11-07T08:01:39.543Z,10.00
2018-11-07T08:02:46.275Z,10.00
2018-11-07T08:03:49.930Z,10.10
2018-11-07T08:04:53.498Z,10.10
2018-11-07T08:05:57.183Z,10.20
2018-11-07T08:07:00.951Z,10.20
2018-11-07T08:08:04.750Z,10.30
2018-11-07T08:09:11.742Z,10.40
2018-11-07T08:10:16.712Z,10.50
2018-11-07T08:11:20.299Z,10.50
2018-11-07T08:12:24.318Z,10.60
2018-11-07T08:13:27.988Z,10.70
2018-11-07T08:14:31.653Z,10.90
2018-11-07T08:15:35.261Z,11.00
2018-11-07T08:16:39.099Z,11.30
2018-11-07T08:17:43.595Z,11.40
2018-11-07T08:18:47.233Z,11.60
2018-11-07T08:19:50.972Z,11.80
2018-11-07T08:20:54.670Z,12.00
2018-11-07T08:21:58.382Z,12.30
2018-11-07T08:23:02.041Z,12.40
2018-11-07T08:24:05.749Z,12.60
2018-11-07T08:25:09.633Z,12.80
2018-11-07T08:26:13.575Z,13.00
2018-11-07T08:27:17.253Z,13.10
2018-11-07T08:28:20.984Z,13.20
2018-11-07T08:29:24.626Z,13.30
2018-11-07T08:30:28.316Z,13.50
2018-11-07T08:31:32.648Z,13.50
2018-11-07T08:32:36.343Z,13.60
2018-11-07T08:33:40.000Z,13.70
2018-11-07T08:34:43.696Z,13.70
2018-11-07T08:35:47.439Z,13.80
2018-11-07T08:36:51.101Z,13.90
2018-11-07T08:37:54.839Z,14.00
2018-11-07T08:38:58.533Z,14.10
2018-11-07T08:40:02.572Z,14.10
2018-11-07T08:41:06.299Z,14.20
2018-11-07T08:42:10.103Z,14.20
2018-11-07T08:43:14.243Z,14.20
2018-11-07T08:44:17.899Z,14.30
2018-11-07T08:45:21.642Z,14.30
2018-11-07T08:46:25.340Z,14.40
2018-11-07T08:47:29.017Z,14.50
2018-11-07T08:48:32.719Z,14.50
2018-11-07T08:49:36.361Z,14.50
2018-11-07T08:50:40.085Z,14.60
2018-11-07T08:51:43.920Z,14.60
2018-11-07T08:52:48.157Z,14.60
2018-11-07T08:53:51.838Z,14.60
2018-11-07T08:54:55.540Z,14.60
2018-11-07T08:55:59.177Z,14.70
2018-11-07T08:57:03.586Z,14.70
2018-11-07T08:58:07.255Z,14.70
2018-11-07T08:59:11.303Z,14.70
2018-11-07T09:00:21.711Z,14.80
2018-11-07T09:01:25.533Z,14.80
2018-11-07T09:02:29.124Z,14.80
2018-11-07T09:03:32.819Z,14.80
2018-11-07T09:04:36.520Z,14.80
2018-11-07T09:05:40.115Z,14.90
2018-11-07T09:06:43.902Z,14.90
2018-11-07T09:07:48.168Z,14.90
2018-11-07T09:08:51.884Z,14.90
2018-11-07T09:09:55.565Z,14.90
2018-11-07T09:10:59.219Z,14.90
2018-11-07T09:12:03.247Z,14.90
2018-11-07T09:13:06.934Z,14.90
2018-11-07T09:14:10.754Z,14.90
2018-11-07T09:15:17.398Z,14.90
2018-11-07T09:16:21.060Z,14.90
2018-11-07T09:17:24.762Z,14.90
2018-11-07T09:18:28.488Z,14.90
2018-11-07T09:19:32.167Z,14.80
2018-11-07T09:20:35.875Z,14.70
2018-11-07T09:21:40.118Z,14.70
2018-11-07T09:22:43.753Z,14.70
2018-11-07T09:23:47.450Z,14.60
2018-11-07T09:24:51.177Z,14.60
2018-11-07T09:25:54.883Z,14.60
2018-11-07T09:26:58.592Z,14.50
2018-11-07T09:28:02.294Z,14.40
2018-11-07T09:29:06.310Z,14.30
2018-11-07T09:30:13.919Z,14.30
2018-11-07T09:31:17.628Z,14.30
2018-11-07T09:32:21.300Z,14.30
2018-11-07T09:33:25.035Z,14.30
2018-11-07T09:34:28.995Z,14.30
2018-11-07T09:35:32.686Z,14.30
2018-11-07T09:36:36.397Z,14.30
2018-11-07T09:37:40.230Z,14.20
2018-11-07T09:38:43.954Z,14.10
2018-11-07T09:39:47.705Z,14.10
2018-11-07T09:40:51.371Z,14.10
2018-11-07T09:41:55.085Z,14.10
2018-11-07T09:42:58.807Z,14.10
2018-11-07T09:44:02.671Z,14.10
2018-11-07T09:45:07.861Z,14.10
2018-11-07T09:46:11.804Z,14.10
2018-11-07T09:47:16.731Z,14.10
2018-11-07T09:48:20.528Z,14.20
2018-11-07T09:49:24.042Z,14.20
2018-11-07T09:50:27.725Z,14.20
2018-11-07T09:51:31.649Z,14.10
2018-11-07T09:52:35.604Z,14.20
2018-11-07T09:53:39.478Z,14.10
2018-11-07T09:54:43.231Z,14.20
2018-11-07T09:55:47.028Z,14.20
2018-11-07T09:56:50.971Z,14.20
2018-11-07T09:57:54.664Z,14.30
2018-11-07T09:58:58.397Z,14.20
2018-11-07T10:00:02.085Z,14.20
2018-11-07T10:01:06.178Z,14.20
2018-11-07T10:02:10.145Z,14.30
2018-11-07T10:03:14.601Z,14.40
2018-11-07T10:04:18.324Z,14.40
2018-11-07T10:05:22.284Z,14.50
2018-11-07T10:06:26.076Z,14.50
2018-11-07T10:07:29.789Z,14.60
2018-11-07T10:08:33.492Z,14.60
2018-11-07T10:09:37.225Z,14.60
2018-11-07T10:10:40.893Z,14.60
2018-11-07T10:11:44.581Z,14.60
2018-11-07T10:12:48.365Z,14.50
2018-11-07T10:13:52.439Z,14.50
2018-11-07T10:14:56.142Z,14.50
2018-11-07T10:15:59.883Z,14.50
2018-11-07T10:17:03.588Z,14.60
2018-11-07T10:18:07.500Z,14.60
2018-11-07T10:19:11.353Z,14.60
2018-11-07T10:20:18.278Z,14.50
2018-11-07T10:21:21.954Z,14.50
2018-11-07T10:22:25.698Z,14.50
2018-11-07T10:23:29.432Z,14.60
2018-11-07T10:24:33.185Z,14.60
2018-11-07T10:25:36.893Z,14.60
2018-11-07T10:26:40.725Z,14.60
2018-11-07T10:27:44.566Z,14.70
2018-11-07T10:28:48.159Z,14.70
2018-11-07T10:29:52.092Z,14.70
2018-11-07T10:30:55.439Z,14.70
2018-11-07T10:31:59.119Z,14.70
2018-11-07T10:33:02.815Z,14.80
2018-11-07T10:34:07.323Z,14.80
2018-11-07T10:35:11.468Z,14.90
2018-11-07T10:36:15.180Z,14.90
2018-11-07T10:37:18.944Z,14.90
2018-11-07T10:38:22.880Z,14.90
2018-11-07T10:39:26.530Z,14.90
2018-11-07T10:40:30.195Z,15.00
2018-11-07T10:41:33.920Z,14.90
2018-11-07T10:42:37.592Z,14.90
2018-11-07T10:43:42.004Z,15.00
2018-11-07T10:44:45.706Z,15.00
2018-11-07T10:45:49.388Z,15.00
2018-11-07T10:46:53.051Z,15.10
2018-11-07T10:47:56.785Z,15.00
2018-11-07T10:49:00.488Z,15.10
2018-11-07T10:50:04.715Z,15.10
2018-11-07T10:51:08.411Z,15.10
2018-11-07T10:52:13.223Z,15.10
2018-11-07T10:53:17.096Z,15.10
2018-11-07T10:54:20.794Z,15.20
2018-11-07T10:55:24.479Z,15.20
2018-11-07T10:56:28.224Z,15.30
2018-11-07T10:57:31.838Z,15.30
2018-11-07T10:58:35.657Z,15.40
2018-11-07T10:59:39.322Z,15.30
2018-11-07T11:00:48.155Z,15.40
2018-11-07T11:01:57.006Z,15.40
2018-11-07T11:03:07.688Z,15.40
2018-11-07T11:04:11.514Z,15.50
2018-11-07T11:05:17.151Z,15.50
2018-11-07T11:06:20.749Z,15.50
2018-11-07T11:07:24.554Z,15.50
2018-11-07T11:08:28.410Z,15.50
2018-11-07T11:09:32.131Z,15.60
2018-11-07T11:10:35.851Z,15.60
2018-11-07T11:11:39.567Z,15.70
2018-11-07T11:12:44.338Z,15.70
2018-11-07T11:13:48.022Z,15.70
2018-11-07T11:14:51.730Z,15.80
2018-11-07T11:15:55.497Z,15.80
2018-11-07T11:16:59.305Z,15.90
2018-11-07T11:18:03.045Z,15.90
2018-11-07T11:19:07.023Z,16.00
2018-11-07T11:20:12.833Z,16.00
2018-11-07T11:21:17.829Z,16.00
2018-11-07T11:22:21.457Z,16.00
2018-11-07T11:23:25.138Z,16.10
2018-11-07T11:24:28.823Z,16.10
2018-11-07T11:25:32.516Z,16.10
2018-11-07T11:26:36.170Z,16.10
2018-11-07T11:27:39.992Z,16.20
2018-11-07T11:28:43.710Z,16.20
2018-11-07T11:29:47.521Z,16.30
2018-11-07T11:30:51.250Z,16.30
2018-11-07T11:31:55.012Z,16.30
2018-11-07T11:32:58.703Z,16.30
2018-11-07T11:34:02.525Z,16.40
2018-11-07T11:35:07.377Z,16.40
2018-11-07T11:36:11.331Z,16.40
2018-11-07T11:37:15.786Z,16.40
2018-11-07T11:38:19.576Z,16.40
2018-11-07T11:39:23.321Z,16.40
2018-11-07T11:40:27.115Z,16.50
2018-11-07T11:41:30.781Z,16.50
2018-11-07T11:42:34.616Z,16.50
2018-11-07T11:43:38.330Z,16.50
2018-11-07T11:44:42.005Z,16.50
2018-11-07T11:45:45.706Z,16.50
2018-11-07T11:46:49.439Z,16.50
2018-11-07T11:47:53.169Z,16.50
2018-11-07T11:48:57.034Z,16.50
2018-11-07T11:50:00.649Z,16.50
2018-11-07T11:51:04.872Z,16.60
2018-11-07T11:52:09.018Z,16.50
2018-11-07T11:53:12.957Z,16.60
2018-11-07T11:54:16.669Z,16.60
2018-11-07T11:55:20.970Z,16.60
2018-11-07T11:56:24.731Z,16.60
2018-11-07T11:57:28.593Z,16.60
2018-11-07T11:58:32.289Z,16.60
2018-11-07T11:59:36.263Z,16.60
2018-11-07T12:00:39.734Z,16.60
2018-11-07T12:01:43.532Z,16.50
2018-11-07T12:02:47.946Z,16.50
2018-11-07T12:03:51.918Z,16.40
2018-11-07T12:04:56.155Z,16.40
2018-11-07T12:06:00.391Z,16.40
2018-11-07T12:07:04.612Z,16.40
2018-11-07T12:08:09.612Z,16.30
2018-11-07T12:09:13.764Z,16.40
2018-11-07T12:10:21.988Z,16.40
2018-11-07T12:11:26.104Z,16.40
2018-11-07T12:12:30.171Z,16.40
2018-11-07T12:13:34.372Z,16.40
2018-11-07T12:14:38.587Z,16.50
2018-11-07T12:15:42.987Z,16.50
2018-11-07T12:16:47.849Z,16.60
2018-11-07T12:17:52.231Z,16.60
2018-11-07T12:18:56.471Z,16.70
2018-11-07T12:20:00.545Z,16.70
2018-11-07T12:21:05.531Z,16.70
2018-11-07T12:22:09.545Z,16.80
2018-11-07T12:23:14.008Z,16.80
2018-11-07T12:24:18.391Z,16.90
2018-11-07T12:25:23.091Z,16.90
2018-11-07T12:26:27.154Z,16.90
2018-11-07T12:27:31.444Z,17.00
2018-11-07T12:28:35.492Z,17.00
2018-11-07T12:29:39.634Z,17.00
2018-11-07T12:30:43.735Z,17.00
2018-11-07T12:31:47.876Z,17.00
2018-11-07T12:32:53.099Z,17.10
2018-11-07T12:33:57.375Z,17.10
2018-11-07T12:35:02.058Z,17.10
2018-11-07T12:36:06.363Z,17.10
2018-11-07T12:37:11.394Z,17.10
2018-11-07T12:38:15.805Z,17.10
2018-11-07T12:39:20.204Z,17.10
2018-11-07T12:40:24.412Z,17.10
2018-11-07T12:41:28.258Z,17.10
2018-11-07T12:42:32.317Z,17.00
2018-11-07T12:43:36.800Z,17.00
2018-11-07T12:44:41.600Z,17.00
2018-11-07T12:45:45.702Z,16.90
2018-11-07T12:46:49.912Z,16.80
2018-11-07T12:47:54.029Z,16.70
2018-11-07T12:48:58.043Z,16.70
2018-11-07T12:50:02.407Z,16.60
2018-11-07T12:51:06.513Z,16.60
2018-11-07T12:52:11.731Z,16.50
2018-11-07T12:53:15.847Z,16.50
2018-11-07T12:54:20.029Z,16.60
2018-11-07T12:55:24.906Z,16.50
2018-11-07T12:56:29.527Z,16.50
2018-11-07T12:57:33.744Z,16.50
2018-11-07T12:58:37.836Z,16.50
2018-11-07T12:59:42.514Z,16.40
2018-11-07T13:00:46.694Z,16.30
2018-11-07T13:01:51.621Z,16.30
2018-11-07T13:02:55.304Z,16.40
2018-11-07T13:03:59.204Z,16.40
2018-11-07T13:05:02.839Z,16.40
2018-11-07T13:06:06.448Z,16.40
2018-11-07T13:07:10.057Z,16.50
2018-11-07T13:08:13.654Z,16.60
2018-11-07T13:09:17.312Z,16.60
2018-11-07T13:10:21.938Z,16.70
2018-11-07T13:11:25.595Z,16.70
2018-11-07T13:12:29.227Z,16.80
2018-11-07T13:13:33.512Z,16.80
2018-11-07T13:14:38.103Z,16.80
2018-11-07T13:15:42.222Z,16.80
2018-11-07T13:16:46.014Z,16.80
2018-11-07T13:17:50.659Z,16.90
2018-11-07T13:18:54.374Z,16.80
2018-11-07T13:19:59.823Z,16.90
2018-11-07T13:21:03.878Z,16.90
2018-11-07T13:22:07.942Z,16.90
2018-11-07T13:23:12.435Z,16.90
2018-11-07T13:24:16.111Z,16.90
2018-11-07T13:25:20.041Z,16.90
2018-11-07T13:26:23.650Z,16.90
2018-11-07T13:27:27.223Z,16.90
2018-11-07T13:28:30.748Z,16.90
2018-11-07T13:29:34.233Z,16.90
2018-11-07T13:30:38.014Z,16.80
2018-11-07T13:31:41.804Z,16.90
2018-11-07T13:32:45.645Z,16.80
2018-11-07T13:33:49.163Z,16.90
2018-11-07T13:34:52.801Z,16.90
2018-11-07T13:35:56.327Z,16.90
2018-11-07T13:37:00.940Z,16.90
2018-11-07T13:38:05.013Z,16.80
2018-11-07T13:39:10.888Z,16.80
2018-11-07T13:40:16.319Z,16.80
2018-11-07T13:41:19.939Z,16.80
2018-11-07T13:42:23.467Z,16.80
2018-11-07T13:43:27.065Z,16.70
2018-11-07T13:44:30.985Z,16.70
2018-11-07T13:45:34.582Z,16.60
2018-11-07T13:46:38.191Z,16.60
2018-11-07T13:47:43.027Z,16.50
2018-11-07T13:48:46.710Z,16.50
2018-11-07T13:49:50.793Z,16.50
2018-11-07T13:50:54.409Z,16.50
2018-11-07T13:51:57.999Z,16.50
2018-11-07T13:53:01.658Z,16.50
2018-11-07T13:54:05.283Z,16.40
2018-11-07T13:55:10.063Z,16.40
2018-11-07T13:56:13.851Z,16.40
2018-11-07T13:57:17.487Z,16.40
2018-11-07T13:58:21.218Z,16.30
2018-11-07T13:59:24.808Z,16.30
2018-11-07T14:00:28.392Z,16.20